sensor_id;sensor_type;location;lat;lon;timestamp;P1;durP1;ratioP1;P2;durP2;ratioP2
18224;SDS011;9237;48.590;8.854;2023-04-09T00:00:19;0.80;;;0.80;;
18224;SDS011;9237;48.590;8.854;2023-04-09T00:02:45;0.80;;;0.80;;
18224;SDS011;9237;48.590;8.854;2023-04-09T00:05:12;0.80;;;0.80;;
18224;SDS011;9237;48.590;8.854;2023-04-09T00:07:39;0.80;;;0.80;;
18224;SDS011;9237;48.590;8.854;2023-04-09T00:10:06;0.90;;;0.90;;
18224;SDS011;9237;48.590;8.854;2023-04-09T00:12:35;0.80;;;0.80;;
18224;SDS011;9237;48.590;8.854;2023-04-09T00:15:02;0.87;;;0.87;;
18224;SDS011;9237;48.590;8.854;2023-04-09T00:17:29;0.70;;;0.70;;
18224;SDS011;9237;48.590;8.854;2023-04-09T00:19:56;0.80;;;0.80;;
18224;SDS011;9237;48.590;8.854;2023-04-09T00:22:22;0.80;;;0.80;;
18224;SDS011;9237;48.590;8.854;2023-04-09T00:24:49;0.80;;;0.80;;
18224;SDS011;9237;48.590;8.854;2023-04-09T00:27:16;0.80;;;0.80;;
18224;SDS011;9237;48.590;8.854;2023-04-09T00:29:44;0.90;;;0.90;;
18224;SDS011;9237;48.590;8.854;2023-04-09T00:32:11;0.83;;;0.83;;
18224;SDS011;9237;48.590;8.854;2023-04-09T00:34:38;0.80;;;0.80;;
18224;SDS011;9237;48.590;8.854;2023-04-09T00:37:05;0.90;;;0.90;;
18224;SDS011;9237;48.590;8.854;2023-04-09T00:39:32;0.80;;;0.80;;
18224;SDS011;9237;48.590;8.854;2023-04-09T00:41:59;0.80;;;0.80;;
18224;SDS011;9237;48.590;8.854;2023-04-09T00:44:27;0.70;;;0.70;;
18224;SDS011;9237;48.590;8.854;2023-04-09T00:46:55;0.80;;;0.80;;
18224;SDS011;9237;48.590;8.854;2023-04-09T00:49:24;0.80;;;0.80;;
18224;SDS011;9237;48.590;8.854;2023-04-09T00:51:51;0.80;;;0.80;;
18224;SDS011;9237;48.590;8.854;2023-04-09T00:54:18;0.80;;;0.80;;
18224;SDS011;9237;48.590;8.854;2023-04-09T00:56:45;0.80;;;0.80;;
18224;SDS011;9237;48.590;8.854;2023-04-09T00:59:12;0.90;;;0.90;;
18224;SDS011;9237;48.590;8.854;2023-04-09T01:01:39;0.80;;;0.80;;
18224;SDS011;9237;48.590;8.854;2023-04-09T01:04:07;0.80;;;0.80;;
18224;SDS011;9237;48.590;8.854;2023-04-09T01:06:37;0.80;;;0.80;;
18224;SDS011;9237;48.590;8.854;2023-04-09T01:09:08;0.90;;;0.90;;
18224;SDS011;9237;48.590;8.854;2023-04-09T01:11:42;0.80;;;0.80;;
18224;SDS011;9237;48.590;8.854;2023-04-09T01:14:13;0.80;;;0.80;;
18224;SDS011;9237;48.590;8.854;2023-04-09T01:16:46;0.70;;;0.70;;
18224;SDS011;9237;48.590;8.854;2023-04-09T01:19:21;0.80;;;0.80;;
18224;SDS011;9237;48.590;8.854;2023-04-09T01:22:04;0.70;;;0.70;;
18224;SDS011;9237;48.590;8.854;2023-04-09T01:24:46;0.70;;;0.70;;
18224;SDS011;9237;48.590;8.854;2023-04-09T01:27:25;0.70;;;0.70;;
18224;SDS011;9237;48.590;8.854;2023-04-09T01:30:09;0.70;;;0.70;;
18224;SDS011;9237;48.590;8.854;2023-04-09T01:32:37;0.70;;;0.70;;
18224;SDS011;9237;48.590;8.854;2023-04-09T01:35:05;0.80;;;0.80;;
18224;SDS011;9237;48.590;8.854;2023-04-09T01:37:33;0.80;;;0.80;;
18224;SDS011;9237;48.590;8.854;2023-04-09T01:40:01;0.60;;;0.60;;
18224;SDS011;9237;48.590;8.854;2023-04-09T01:42:29;0.70;;;0.70;;
18224;SDS011;9237;48.590;8.854;2023-04-09T01:44:57;0.70;;;0.70;;
18224;SDS011;9237;48.590;8.854;2023-04-09T01:47:28;0.70;;;0.70;;
18224;SDS011;9237;48.590;8.854;2023-04-09T01:49:55;0.80;;;0.80;;
18224;SDS011;9237;48.590;8.854;2023-04-09T01:52:22;0.80;;;0.80;;
18224;SDS011;9237;48.590;8.854;2023-04-09T01:54:49;0.80;;;0.80;;
18224;SDS011;9237;48.590;8.854;2023-04-09T01:57:16;0.80;;;0.80;;
18224;SDS011;9237;48.590;8.854;2023-04-09T01:59:43;0.70;;;0.70;;
18224;SDS011;9237;48.590;8.854;2023-04-09T02:02:11;0.70;;;0.70;;
18224;SDS011;9237;48.590;8.854;2023-04-09T02:04:45;0.80;;;0.80;;
18224;SDS011;9237;48.590;8.854;2023-04-09T02:07:16;0.80;;;0.80;;
18224;SDS011;9237;48.590;8.854;2023-04-09T02:09:49;0.80;;;0.80;;
18224;SDS011;9237;48.590;8.854;2023-04-09T02:12:18;0.70;;;0.70;;
18224;SDS011;9237;48.590;8.854;2023-04-09T02:14:47;0.80;;;0.80;;
18224;SDS011;9237;48.590;8.854;2023-04-09T02:17:16;0.90;;;0.90;;
18224;SDS011;9237;48.590;8.854;2023-04-09T02:19:45;0.80;;;0.80;;
18224;SDS011;9237;48.590;8.854;2023-04-09T02:22:13;0.70;;;0.70;;
18224;SDS011;9237;48.590;8.854;2023-04-09T02:24:40;0.80;;;0.80;;
18224;SDS011;9237;48.590;8.854;2023-04-09T02:27:07;0.80;;;0.80;;
18224;SDS011;9237;48.590;8.854;2023-04-09T02:29:34;0.90;;;0.90;;
18224;SDS011;9237;48.590;8.854;2023-04-09T02:32:00;0.80;;;0.80;;
18224;SDS011;9237;48.590;8.854;2023-04-09T02:34:27;0.80;;;0.80;;
18224;SDS011;9237;48.590;8.854;2023-04-09T02:36:55;0.80;;;0.80;;
18224;SDS011;9237;48.590;8.854;2023-04-09T02:39:22;0.80;;;0.80;;
18224;SDS011;9237;48.590;8.854;2023-04-09T02:41:49;0.80;;;0.80;;
18224;SDS011;9237;48.590;8.854;2023-04-09T02:44:16;0.80;;;0.80;;
18224;SDS011;9237;48.590;8.854;2023-04-09T02:46:43;0.70;;;0.70;;
18224;SDS011;9237;48.590;8.854;2023-04-09T02:49:13;0.80;;;0.80;;
18224;SDS011;9237;48.590;8.854;2023-04-09T02:51:40;0.70;;;0.70;;
18224;SDS011;9237;48.590;8.854;2023-04-09T02:54:08;0.80;;;0.80;;
18224;SDS011;9237;48.590;8.854;2023-04-09T02:56:35;0.90;;;0.90;;
18224;SDS011;9237;48.590;8.854;2023-04-09T02:59:01;0.70;;;0.70;;
18224;SDS011;9237;48.590;8.854;2023-04-09T03:01:28;0.90;;;0.90;;
18224;SDS011;9237;48.590;8.854;2023-04-09T03:03:55;0.90;;;0.90;;
18224;SDS011;9237;48.590;8.854;2023-04-09T03:06:22;0.70;;;0.70;;
18224;SDS011;9237;48.590;8.854;2023-04-09T03:08:48;0.80;;;0.80;;
18224;SDS011;9237;48.590;8.854;2023-04-09T03:11:16;0.80;;;0.80;;
18224;SDS011;9237;48.590;8.854;2023-04-09T03:13:43;0.70;;;0.70;;
18224;SDS011;9237;48.590;8.854;2023-04-09T03:16:10;0.80;;;0.80;;
18224;SDS011;9237;48.590;8.854;2023-04-09T03:18:37;0.70;;;0.70;;
18224;SDS011;9237;48.590;8.854;2023-04-09T03:21:04;0.80;;;0.80;;
18224;SDS011;9237;48.590;8.854;2023-04-09T03:23:32;0.70;;;0.70;;
18224;SDS011;9237;48.590;8.854;2023-04-09T03:26:00;0.80;;;0.80;;
18224;SDS011;9237;48.590;8.854;2023-04-09T03:28:28;0.80;;;0.80;;
18224;SDS011;9237;48.590;8.854;2023-04-09T03:30:55;0.80;;;0.80;;
18224;SDS011;9237;48.590;8.854;2023-04-09T03:33:22;0.83;;;0.83;;
18224;SDS011;9237;48.590;8.854;2023-04-09T03:35:50;0.70;;;0.70;;
18224;SDS011;9237;48.590;8.854;2023-04-09T03:38:17;0.70;;;0.70;;
18224;SDS011;9237;48.590;8.854;2023-04-09T03:40:44;0.70;;;0.70;;
18224;SDS011;9237;48.590;8.854;2023-04-09T03:43:10;0.80;;;0.80;;
18224;SDS011;9237;48.590;8.854;2023-04-09T03:45:38;0.80;;;0.80;;
18224;SDS011;9237;48.590;8.854;2023-04-09T03:48:05;0.80;;;0.80;;
18224;SDS011;9237;48.590;8.854;2023-04-09T03:50:36;0.80;;;0.80;;
18224;SDS011;9237;48.590;8.854;2023-04-09T03:53:03;0.73;;;0.73;;
18224;SDS011;9237;48.590;8.854;2023-04-09T03:55:30;0.70;;;0.70;;
18224;SDS011;9237;48.590;8.854;2023-04-09T03:57:57;0.90;;;0.90;;
18224;SDS011;9237;48.590;8.854;2023-04-09T04:00:24;0.70;;;0.70;;
18224;SDS011;9237;48.590;8.854;2023-04-09T04:02:52;0.77;;;0.77;;
18224;SDS011;9237;48.590;8.854;2023-04-09T04:05:21;0.80;;;0.80;;
18224;SDS011;9237;48.590;8.854;2023-04-09T04:07:49;0.90;;;0.90;;
18224;SDS011;9237;48.590;8.854;2023-04-09T04:10:16;0.80;;;0.80;;
18224;SDS011;9237;48.590;8.854;2023-04-09T04:12:43;0.70;;;0.70;;
18224;SDS011;9237;48.590;8.854;2023-04-09T04:15:10;0.73;;;0.73;;
18224;SDS011;9237;48.590;8.854;2023-04-09T04:17:37;0.70;;;0.70;;
18224;SDS011;9237;48.590;8.854;2023-04-09T04:20:05;0.90;;;0.90;;
18224;SDS011;9237;48.590;8.854;2023-04-09T04:22:33;0.80;;;0.80;;
18224;SDS011;9237;48.590;8.854;2023-04-09T04:25:00;0.80;;;0.80;;
18224;SDS011;9237;48.590;8.854;2023-04-09T04:27:27;0.70;;;0.70;;
18224;SDS011;9237;48.590;8.854;2023-04-09T04:29:55;0.80;;;0.80;;
18224;SDS011;9237;48.590;8.854;2023-04-09T04:32:24;0.70;;;0.70;;
18224;SDS011;9237;48.590;8.854;2023-04-09T04:34:51;0.80;;;0.80;;
18224;SDS011;9237;48.590;8.854;2023-04-09T04:37:19;0.80;;;0.80;;
18224;SDS011;9237;48.590;8.854;2023-04-09T04:39:46;0.80;;;0.80;;
18224;SDS011;9237;48.590;8.854;2023-04-09T04:42:12;0.77;;;0.77;;
18224;SDS011;9237;48.590;8.854;2023-04-09T04:44:39;0.80;;;0.80;;
18224;SDS011;9237;48.590;8.854;2023-04-09T04:47:06;0.90;;;0.90;;
18224;SDS011;9237;48.590;8.854;2023-04-09T04:49:33;0.80;;;0.80;;
18224;SDS011;9237;48.590;8.854;2023-04-09T04:51:59;0.60;;;0.60;;
18224;SDS011;9237;48.590;8.854;2023-04-09T04:54:27;0.80;;;0.80;;
18224;SDS011;9237;48.590;8.854;2023-04-09T04:56:54;0.80;;;0.80;;
18224;SDS011;9237;48.590;8.854;2023-04-09T04:59:21;0.77;;;0.77;;
18224;SDS011;9237;48.590;8.854;2023-04-09T05:01:48;0.80;;;0.80;;
18224;SDS011;9237;48.590;8.854;2023-04-09T05:04:14;0.90;;;0.90;;
18224;SDS011;9237;48.590;8.854;2023-04-09T05:06:41;0.80;;;0.80;;
18224;SDS011;9237;48.590;8.854;2023-04-09T05:09:08;0.67;;;0.67;;
18224;SDS011;9237;48.590;8.854;2023-04-09T05:11:36;0.80;;;0.80;;
18224;SDS011;9237;48.590;8.854;2023-04-09T05:14:03;0.83;;;0.83;;
18224;SDS011;9237;48.590;8.854;2023-04-09T05:16:30;0.70;;;0.70;;
18224;SDS011;9237;48.590;8.854;2023-04-09T05:18:57;0.80;;;0.80;;
18224;SDS011;9237;48.590;8.854;2023-04-09T05:21:24;0.80;;;0.80;;
18224;SDS011;9237;48.590;8.854;2023-04-09T05:23:51;0.80;;;0.80;;
18224;SDS011;9237;48.590;8.854;2023-04-09T05:26:18;0.80;;;0.80;;
18224;SDS011;9237;48.590;8.854;2023-04-09T05:28:46;0.70;;;0.70;;
18224;SDS011;9237;48.590;8.854;2023-04-09T05:31:13;0.80;;;0.80;;
18224;SDS011;9237;48.590;8.854;2023-04-09T05:33:40;0.80;;;0.80;;
18224;SDS011;9237;48.590;8.854;2023-04-09T05:36:07;0.70;;;0.70;;
18224;SDS011;9237;48.590;8.854;2023-04-09T05:38:34;0.70;;;0.70;;
18224;SDS011;9237;48.590;8.854;2023-04-09T05:41:00;0.80;;;0.80;;
18224;SDS011;9237;48.590;8.854;2023-04-09T05:43:27;0.80;;;0.80;;
18224;SDS011;9237;48.590;8.854;2023-04-09T05:45:56;0.80;;;0.80;;
18224;SDS011;9237;48.590;8.854;2023-04-09T05:48:22;0.80;;;0.80;;
18224;SDS011;9237;48.590;8.854;2023-04-09T05:50:49;0.80;;;0.80;;
18224;SDS011;9237;48.590;8.854;2023-04-09T05:53:16;0.80;;;0.80;;
18224;SDS011;9237;48.590;8.854;2023-04-09T05:55:44;0.70;;;0.70;;
18224;SDS011;9237;48.590;8.854;2023-04-09T05:58:11;0.90;;;0.90;;
18224;SDS011;9237;48.590;8.854;2023-04-09T06:00:39;0.80;;;0.80;;
18224;SDS011;9237;48.590;8.854;2023-04-09T06:03:07;0.80;;;0.80;;
18224;SDS011;9237;48.590;8.854;2023-04-09T06:05:34;0.70;;;0.70;;
18224;SDS011;9237;48.590;8.854;2023-04-09T06:08:01;0.80;;;0.80;;
18224;SDS011;9237;48.590;8.854;2023-04-09T06:10:28;0.80;;;0.80;;
18224;SDS011;9237;48.590;8.854;2023-04-09T06:12:57;0.80;;;0.80;;
18224;SDS011;9237;48.590;8.854;2023-04-09T06:15:23;0.70;;;0.70;;
18224;SDS011;9237;48.590;8.854;2023-04-09T06:17:50;0.80;;;0.80;;
18224;SDS011;9237;48.590;8.854;2023-04-09T06:20:18;0.80;;;0.80;;
18224;SDS011;9237;48.590;8.854;2023-04-09T06:22:45;0.70;;;0.70;;
18224;SDS011;9237;48.590;8.854;2023-04-09T06:25:12;0.70;;;0.70;;
18224;SDS011;9237;48.590;8.854;2023-04-09T06:27:39;0.70;;;0.70;;
18224;SDS011;9237;48.590;8.854;2023-04-09T06:30:07;0.70;;;0.70;;
18224;SDS011;9237;48.590;8.854;2023-04-09T06:32:35;0.80;;;0.80;;
18224;SDS011;9237;48.590;8.854;2023-04-09T06:35:01;0.70;;;0.70;;
18224;SDS011;9237;48.590;8.854;2023-04-09T06:37:30;0.70;;;0.70;;
18224;SDS011;9237;48.590;8.854;2023-04-09T06:39:57;0.70;;;0.70;;
18224;SDS011;9237;48.590;8.854;2023-04-09T06:42:23;0.80;;;0.80;;
18224;SDS011;9237;48.590;8.854;2023-04-09T06:44:50;0.70;;;0.70;;
18224;SDS011;9237;48.590;8.854;2023-04-09T06:47:17;0.80;;;0.80;;
18224;SDS011;9237;48.590;8.854;2023-04-09T06:49:44;0.73;;;0.73;;
18224;SDS011;9237;48.590;8.854;2023-04-09T06:52:11;0.60;;;0.60;;
18224;SDS011;9237;48.590;8.854;2023-04-09T06:54:39;0.80;;;0.80;;
18224;SDS011;9237;48.590;8.854;2023-04-09T06:57:06;0.80;;;0.80;;
18224;SDS011;9237;48.590;8.854;2023-04-09T06:59:33;0.70;;;0.70;;
18224;SDS011;9237;48.590;8.854;2023-04-09T07:02:00;0.60;;;0.60;;
18224;SDS011;9237;48.590;8.854;2023-04-09T07:04:27;0.63;;;0.63;;
18224;SDS011;9237;48.590;8.854;2023-04-09T07:06:53;0.70;;;0.70;;
18224;SDS011;9237;48.590;8.854;2023-04-09T07:09:23;0.70;;;0.70;;
18224;SDS011;9237;48.590;8.854;2023-04-09T07:11:51;0.70;;;0.70;;
18224;SDS011;9237;48.590;8.854;2023-04-09T07:14:18;0.70;;;0.70;;
18224;SDS011;9237;48.590;8.854;2023-04-09T07:16:44;0.60;;;0.60;;
18224;SDS011;9237;48.590;8.854;2023-04-09T07:19:11;0.70;;;0.70;;
18224;SDS011;9237;48.590;8.854;2023-04-09T07:21:38;0.70;;;0.70;;
18224;SDS011;9237;48.590;8.854;2023-04-09T07:24:05;0.70;;;0.70;;
18224;SDS011;9237;48.590;8.854;2023-04-09T07:26:32;0.70;;;0.70;;
18224;SDS011;9237;48.590;8.854;2023-04-09T07:29:00;0.63;;;0.63;;
18224;SDS011;9237;48.590;8.854;2023-04-09T07:31:27;0.70;;;0.70;;
18224;SDS011;9237;48.590;8.854;2023-04-09T07:33:54;0.70;;;0.70;;
18224;SDS011;9237;48.590;8.854;2023-04-09T07:36:21;0.60;;;0.60;;
18224;SDS011;9237;48.590;8.854;2023-04-09T07:38:48;0.63;;;0.63;;
18224;SDS011;9237;48.590;8.854;2023-04-09T07:41:15;0.70;;;0.70;;
18224;SDS011;9237;48.590;8.854;2023-04-09T07:43:41;0.70;;;0.70;;
18224;SDS011;9237;48.590;8.854;2023-04-09T07:46:09;0.80;;;0.80;;
18224;SDS011;9237;48.590;8.854;2023-04-09T07:48:36;0.70;;;0.70;;
18224;SDS011;9237;48.590;8.854;2023-04-09T07:51:03;0.70;;;0.70;;
18224;SDS011;9237;48.590;8.854;2023-04-09T07:53:30;0.80;;;0.80;;
18224;SDS011;9237;48.590;8.854;2023-04-09T07:55:57;0.70;;;0.70;;
18224;SDS011;9237;48.590;8.854;2023-04-09T07:58:23;0.70;;;0.70;;
18224;SDS011;9237;48.590;8.854;2023-04-09T08:00:50;0.70;;;0.70;;
18224;SDS011;9237;48.590;8.854;2023-04-09T08:03:18;0.70;;;0.70;;
18224;SDS011;9237;48.590;8.854;2023-04-09T08:05:45;0.70;;;0.70;;
18224;SDS011;9237;48.590;8.854;2023-04-09T08:08:12;0.70;;;0.70;;
18224;SDS011;9237;48.590;8.854;2023-04-09T08:10:39;0.70;;;0.70;;
18224;SDS011;9237;48.590;8.854;2023-04-09T08:13:06;0.70;;;0.70;;
18224;SDS011;9237;48.590;8.854;2023-04-09T08:15:32;0.70;;;0.70;;
18224;SDS011;9237;48.590;8.854;2023-04-09T08:18:00;0.70;;;0.70;;
18224;SDS011;9237;48.590;8.854;2023-04-09T08:20:29;0.80;;;0.80;;
18224;SDS011;9237;48.590;8.854;2023-04-09T08:22:57;0.70;;;0.70;;
18224;SDS011;9237;48.590;8.854;2023-04-09T08:25:24;0.70;;;0.70;;
18224;SDS011;9237;48.590;8.854;2023-04-09T08:27:51;0.70;;;0.70;;
18224;SDS011;9237;48.590;8.854;2023-04-09T08:30:18;0.70;;;0.70;;
18224;SDS011;9237;48.590;8.854;2023-04-09T08:32:45;0.70;;;0.70;;
18224;SDS011;9237;48.590;8.854;2023-04-09T08:35:12;0.70;;;0.70;;
18224;SDS011;9237;48.590;8.854;2023-04-09T08:37:41;0.70;;;0.70;;
18224;SDS011;9237;48.590;8.854;2023-04-09T08:40:08;0.70;;;0.70;;
18224;SDS011;9237;48.590;8.854;2023-04-09T08:42:37;0.70;;;0.70;;
18224;SDS011;9237;48.590;8.854;2023-04-09T08:45:09;0.70;;;0.70;;
18224;SDS011;9237;48.590;8.854;2023-04-09T08:47:37;0.60;;;0.60;;
18224;SDS011;9237;48.590;8.854;2023-04-09T08:50:06;0.77;;;0.77;;
18224;SDS011;9237;48.590;8.854;2023-04-09T08:52:34;0.70;;;0.70;;
18224;SDS011;9237;48.590;8.854;2023-04-09T08:55:03;0.70;;;0.70;;
18224;SDS011;9237;48.590;8.854;2023-04-09T08:57:35;0.70;;;0.70;;
18224;SDS011;9237;48.590;8.854;2023-04-09T09:00:03;0.70;;;0.70;;
18224;SDS011;9237;48.590;8.854;2023-04-09T09:02:30;0.70;;;0.70;;
18224;SDS011;9237;48.590;8.854;2023-04-09T09:04:57;0.70;;;0.70;;
18224;SDS011;9237;48.590;8.854;2023-04-09T09:07:25;0.70;;;0.70;;
18224;SDS011;9237;48.590;8.854;2023-04-09T09:09:53;0.70;;;0.70;;
18224;SDS011;9237;48.590;8.854;2023-04-09T09:12:35;0.70;;;0.70;;
18224;SDS011;9237;48.590;8.854;2023-04-09T09:15:04;0.60;;;0.60;;
18224;SDS011;9237;48.590;8.854;2023-04-09T09:17:52;0.90;;;0.90;;
18224;SDS011;9237;48.590;8.854;2023-04-09T09:20:20;0.70;;;0.70;;
18224;SDS011;9237;48.590;8.854;2023-04-09T09:22:48;0.70;;;0.70;;
18224;SDS011;9237;48.590;8.854;2023-04-09T09:25:15;0.70;;;0.70;;
18224;SDS011;9237;48.590;8.854;2023-04-09T09:27:44;0.70;;;0.70;;
18224;SDS011;9237;48.590;8.854;2023-04-09T09:30:19;0.70;;;0.70;;
18224;SDS011;9237;48.590;8.854;2023-04-09T09:32:47;0.80;;;0.80;;
18224;SDS011;9237;48.590;8.854;2023-04-09T09:35:17;0.70;;;0.70;;
18224;SDS011;9237;48.590;8.854;2023-04-09T09:37:44;0.80;;;0.80;;
18224;SDS011;9237;48.590;8.854;2023-04-09T09:40:11;0.80;;;0.80;;
18224;SDS011;9237;48.590;8.854;2023-04-09T09:42:54;0.70;;;0.70;;
18224;SDS011;9237;48.590;8.854;2023-04-09T09:45:22;0.73;;;0.73;;
18224;SDS011;9237;48.590;8.854;2023-04-09T09:47:49;0.80;;;0.80;;
18224;SDS011;9237;48.590;8.854;2023-04-09T09:50:17;0.80;;;0.80;;
18224;SDS011;9237;48.590;8.854;2023-04-09T09:52:44;0.70;;;0.70;;
18224;SDS011;9237;48.590;8.854;2023-04-09T09:55:12;0.70;;;0.70;;
18224;SDS011;9237;48.590;8.854;2023-04-09T09:57:40;0.70;;;0.70;;
18224;SDS011;9237;48.590;8.854;2023-04-09T10:00:11;0.70;;;0.70;;
18224;SDS011;9237;48.590;8.854;2023-04-09T10:02:41;0.70;;;0.70;;
18224;SDS011;9237;48.590;8.854;2023-04-09T10:05:11;0.80;;;0.80;;
18224;SDS011;9237;48.590;8.854;2023-04-09T10:07:38;0.70;;;0.70;;
18224;SDS011;9237;48.590;8.854;2023-04-09T10:10:07;0.80;;;0.80;;
18224;SDS011;9237;48.590;8.854;2023-04-09T10:12:35;0.80;;;0.80;;
18224;SDS011;9237;48.590;8.854;2023-04-09T10:15:02;0.70;;;0.70;;
18224;SDS011;9237;48.590;8.854;2023-04-09T10:17:31;0.70;;;0.70;;
18224;SDS011;9237;48.590;8.854;2023-04-09T10:20:03;0.70;;;0.70;;
18224;SDS011;9237;48.590;8.854;2023-04-09T10:22:35;0.80;;;0.80;;
18224;SDS011;9237;48.590;8.854;2023-04-09T10:25:03;0.63;;;0.63;;
18224;SDS011;9237;48.590;8.854;2023-04-09T10:27:30;0.77;;;0.77;;
18224;SDS011;9237;48.590;8.854;2023-04-09T10:29:57;0.80;;;0.80;;
18224;SDS011;9237;48.590;8.854;2023-04-09T10:32:25;0.77;;;0.77;;
18224;SDS011;9237;48.590;8.854;2023-04-09T10:34:56;0.80;;;0.80;;
18224;SDS011;9237;48.590;8.854;2023-04-09T10:37:25;0.70;;;0.70;;
18224;SDS011;9237;48.590;8.854;2023-04-09T10:39:52;0.70;;;0.70;;
18224;SDS011;9237;48.590;8.854;2023-04-09T10:42:21;0.80;;;0.80;;
18224;SDS011;9237;48.590;8.854;2023-04-09T10:45:03;0.80;;;0.80;;
18224;SDS011;9237;48.590;8.854;2023-04-09T10:47:31;0.70;;;0.70;;
18224;SDS011;9237;48.590;8.854;2023-04-09T10:50:11;0.70;;;0.70;;
18224;SDS011;9237;48.590;8.854;2023-04-09T10:52:40;0.80;;;0.80;;
18224;SDS011;9237;48.590;8.854;2023-04-09T10:55:08;0.70;;;0.70;;
18224;SDS011;9237;48.590;8.854;2023-04-09T10:57:35;0.80;;;0.80;;
18224;SDS011;9237;48.590;8.854;2023-04-09T11:00:02;0.80;;;0.80;;
18224;SDS011;9237;48.590;8.854;2023-04-09T11:05:36;0.80;;;0.80;;
18224;SDS011;9237;48.590;8.854;2023-04-09T11:08:05;0.80;;;0.80;;
18224;SDS011;9237;48.590;8.854;2023-04-09T11:10:34;0.70;;;0.70;;
18224;SDS011;9237;48.590;8.854;2023-04-09T11:13:02;0.70;;;0.70;;
18224;SDS011;9237;48.590;8.854;2023-04-09T11:15:29;0.80;;;0.80;;
18224;SDS011;9237;48.590;8.854;2023-04-09T11:17:57;0.80;;;0.80;;
18224;SDS011;9237;48.590;8.854;2023-04-09T11:20:24;0.80;;;0.80;;
18224;SDS011;9237;48.590;8.854;2023-04-09T11:22:53;0.70;;;0.70;;
18224;SDS011;9237;48.590;8.854;2023-04-09T11:25:20;0.70;;;0.70;;
18224;SDS011;9237;48.590;8.854;2023-04-09T11:27:48;0.70;;;0.70;;
18224;SDS011;9237;48.590;8.854;2023-04-09T11:30:16;0.70;;;0.70;;
18224;SDS011;9237;48.590;8.854;2023-04-09T11:32:43;0.70;;;0.70;;
18224;SDS011;9237;48.590;8.854;2023-04-09T11:35:10;0.70;;;0.70;;
18224;SDS011;9237;48.590;8.854;2023-04-09T11:37:38;0.70;;;0.70;;
18224;SDS011;9237;48.590;8.854;2023-04-09T11:40:12;0.63;;;0.63;;
18224;SDS011;9237;48.590;8.854;2023-04-09T11:42:41;0.50;;;0.50;;
18224;SDS011;9237;48.590;8.854;2023-04-09T11:45:08;0.60;;;0.60;;
18224;SDS011;9237;48.590;8.854;2023-04-09T11:47:37;0.60;;;0.60;;
18224;SDS011;9237;48.590;8.854;2023-04-09T11:50:05;0.60;;;0.60;;
18224;SDS011;9237;48.590;8.854;2023-04-09T11:52:33;0.60;;;0.60;;
18224;SDS011;9237;48.590;8.854;2023-04-09T11:55:00;0.60;;;0.60;;
18224;SDS011;9237;48.590;8.854;2023-04-09T11:57:43;0.70;;;0.70;;
18224;SDS011;9237;48.590;8.854;2023-04-09T12:00:11;0.70;;;0.70;;
18224;SDS011;9237;48.590;8.854;2023-04-09T12:02:40;0.60;;;0.60;;
18224;SDS011;9237;48.590;8.854;2023-04-09T12:05:11;0.60;;;0.60;;
18224;SDS011;9237;48.590;8.854;2023-04-09T12:07:45;0.60;;;0.60;;
18224;SDS011;9237;48.590;8.854;2023-04-09T12:10:12;0.70;;;0.70;;
18224;SDS011;9237;48.590;8.854;2023-04-09T12:12:39;0.70;;;0.70;;
18224;SDS011;9237;48.590;8.854;2023-04-09T12:15:10;0.70;;;0.70;;
18224;SDS011;9237;48.590;8.854;2023-04-09T12:17:38;0.70;;;0.70;;
18224;SDS011;9237;48.590;8.854;2023-04-09T12:20:05;0.70;;;0.70;;
18224;SDS011;9237;48.590;8.854;2023-04-09T12:22:33;0.70;;;0.70;;
18224;SDS011;9237;48.590;8.854;2023-04-09T12:25:05;0.60;;;0.60;;
18224;SDS011;9237;48.590;8.854;2023-04-09T12:27:32;0.70;;;0.70;;
18224;SDS011;9237;48.590;8.854;2023-04-09T12:30:00;0.70;;;0.70;;
18224;SDS011;9237;48.590;8.854;2023-04-09T12:32:27;0.60;;;0.60;;
18224;SDS011;9237;48.590;8.854;2023-04-09T12:34:54;0.60;;;0.60;;
18224;SDS011;9237;48.590;8.854;2023-04-09T12:37:21;0.57;;;0.57;;
18224;SDS011;9237;48.590;8.854;2023-04-09T12:39:47;0.60;;;0.60;;
18224;SDS011;9237;48.590;8.854;2023-04-09T12:42:14;0.52;;;0.52;;
18224;SDS011;9237;48.590;8.854;2023-04-09T12:44:41;0.50;;;0.50;;
18224;SDS011;9237;48.590;8.854;2023-04-09T12:47:09;0.50;;;0.50;;
18224;SDS011;9237;48.590;8.854;2023-04-09T12:49:37;0.50;;;0.50;;
18224;SDS011;9237;48.590;8.854;2023-04-09T12:52:04;0.50;;;0.50;;
18224;SDS011;9237;48.590;8.854;2023-04-09T12:54:31;0.50;;;0.50;;
18224;SDS011;9237;48.590;8.854;2023-04-09T12:56:58;0.50;;;0.50;;
18224;SDS011;9237;48.590;8.854;2023-04-09T12:59:25;0.50;;;0.50;;
18224;SDS011;9237;48.590;8.854;2023-04-09T13:01:52;0.50;;;0.50;;
18224;SDS011;9237;48.590;8.854;2023-04-09T13:04:20;0.50;;;0.50;;
18224;SDS011;9237;48.590;8.854;2023-04-09T13:06:48;0.50;;;0.50;;
18224;SDS011;9237;48.590;8.854;2023-04-09T13:09:15;0.50;;;0.50;;
18224;SDS011;9237;48.590;8.854;2023-04-09T13:11:42;0.50;;;0.50;;
18224;SDS011;9237;48.590;8.854;2023-04-09T13:14:09;0.50;;;0.50;;
18224;SDS011;9237;48.590;8.854;2023-04-09T13:16:37;0.50;;;0.50;;
18224;SDS011;9237;48.590;8.854;2023-04-09T13:19:05;0.50;;;0.50;;
18224;SDS011;9237;48.590;8.854;2023-04-09T13:21:33;0.50;;;0.50;;
18224;SDS011;9237;48.590;8.854;2023-04-09T13:24:00;0.50;;;0.50;;
18224;SDS011;9237;48.590;8.854;2023-04-09T13:26:28;0.50;;;0.50;;
18224;SDS011;9237;48.590;8.854;2023-04-09T13:28:55;0.50;;;0.50;;
18224;SDS011;9237;48.590;8.854;2023-04-09T13:31:22;0.50;;;0.50;;
18224;SDS011;9237;48.590;8.854;2023-04-09T13:33:49;0.50;;;0.50;;
18224;SDS011;9237;48.590;8.854;2023-04-09T13:36:17;0.50;;;0.50;;
18224;SDS011;9237;48.590;8.854;2023-04-09T13:38:45;0.50;;;0.50;;
18224;SDS011;9237;48.590;8.854;2023-04-09T13:41:12;0.50;;;0.50;;
18224;SDS011;9237;48.590;8.854;2023-04-09T13:43:39;0.50;;;0.50;;
18224;SDS011;9237;48.590;8.854;2023-04-09T13:46:07;0.60;;;0.60;;
18224;SDS011;9237;48.590;8.854;2023-04-09T13:48:34;0.50;;;0.50;;
18224;SDS011;9237;48.590;8.854;2023-04-09T13:51:01;0.50;;;0.50;;
18224;SDS011;9237;48.590;8.854;2023-04-09T13:53:28;0.50;;;0.50;;
18224;SDS011;9237;48.590;8.854;2023-04-09T13:55:56;0.50;;;0.50;;
18224;SDS011;9237;48.590;8.854;2023-04-09T13:58:23;0.50;;;0.50;;
18224;SDS011;9237;48.590;8.854;2023-04-09T14:00:50;0.50;;;0.50;;
18224;SDS011;9237;48.590;8.854;2023-04-09T14:03:17;0.50;;;0.50;;
18224;SDS011;9237;48.590;8.854;2023-04-09T14:05:44;0.50;;;0.50;;
18224;SDS011;9237;48.590;8.854;2023-04-09T14:08:10;0.55;;;0.55;;
18224;SDS011;9237;48.590;8.854;2023-04-09T14:10:37;0.50;;;0.50;;
18224;SDS011;9237;48.590;8.854;2023-04-09T14:13:05;0.50;;;0.50;;
18224;SDS011;9237;48.590;8.854;2023-04-09T14:15:34;0.50;;;0.50;;
18224;SDS011;9237;48.590;8.854;2023-04-09T14:18:01;0.57;;;0.57;;
18224;SDS011;9237;48.590;8.854;2023-04-09T14:20:28;0.60;;;0.60;;
18224;SDS011;9237;48.590;8.854;2023-04-09T14:22:55;0.60;;;0.60;;
18224;SDS011;9237;48.590;8.854;2023-04-09T14:25:22;0.60;;;0.60;;
18224;SDS011;9237;48.590;8.854;2023-04-09T14:27:48;0.70;;;0.70;;
18224;SDS011;9237;48.590;8.854;2023-04-09T14:30:17;0.63;;;0.63;;
18224;SDS011;9237;48.590;8.854;2023-04-09T14:32:44;0.63;;;0.63;;
18224;SDS011;9237;48.590;8.854;2023-04-09T14:35:11;0.60;;;0.60;;
18224;SDS011;9237;48.590;8.854;2023-04-09T14:37:38;0.60;;;0.60;;
18224;SDS011;9237;48.590;8.854;2023-04-09T14:40:06;0.70;;;0.70;;
18224;SDS011;9237;48.590;8.854;2023-04-09T14:42:33;0.70;;;0.70;;
18224;SDS011;9237;48.590;8.854;2023-04-09T14:45:00;0.70;;;0.70;;
18224;SDS011;9237;48.590;8.854;2023-04-09T14:47:29;0.70;;;0.70;;
18224;SDS011;9237;48.590;8.854;2023-04-09T14:49:56;0.70;;;0.70;;
18224;SDS011;9237;48.590;8.854;2023-04-09T14:52:22;0.70;;;0.70;;
18224;SDS011;9237;48.590;8.854;2023-04-09T14:54:50;0.70;;;0.70;;
18224;SDS011;9237;48.590;8.854;2023-04-09T14:57:17;0.70;;;0.70;;
18224;SDS011;9237;48.590;8.854;2023-04-09T14:59:44;0.60;;;0.60;;
18224;SDS011;9237;48.590;8.854;2023-04-09T15:02:11;0.70;;;0.70;;
18224;SDS011;9237;48.590;8.854;2023-04-09T15:04:39;0.70;;;0.70;;
18224;SDS011;9237;48.590;8.854;2023-04-09T15:07:05;0.70;;;0.70;;